Terminal Aerodrome Forecast
Issued by NWS Sterling, VA

Current Version | Previous Version | Text Only | Print | Product List | Glossary Off
Versions: 1 2 3 4 5 6 7 8 9 10 11 12 13 14 15 16

000
FTUS41 KLWX 300500
TAFMRB
TAF
KMRB 300521Z 3006/3106 VRB03KT P6SM SKC
     FM301500 32008KT P6SM SCT250
     FM301700 33007KT P6SM SCT040
     FM302300 00000KT P6SM SCT040
     FM310500 00000KT P6SM BKN035=

USA.gov is the U.S. government's official web portal to all federal, state and local government web resources and services.